createdAt,value
2017-12-21T00:02:20.462Z,23.37
2017-12-21T00:04:47.979Z,23.80
2017-12-21T00:07:15.525Z,24.43
2017-12-21T00:09:43.003Z,24.10
2017-12-21T00:12:10.511Z,23.47
2017-12-21T00:14:38.759Z,24.40
2017-12-21T00:17:06.239Z,23.43
2017-12-21T00:19:34.527Z,22.80
2017-12-21T00:22:02.770Z,25.00
2017-12-21T00:24:31.015Z,26.50
2017-12-21T00:26:58.502Z,23.77
2017-12-21T00:29:25.979Z,25.80
2017-12-21T00:31:53.451Z,26.30
2017-12-21T00:34:21.727Z,26.23
2017-12-21T00:36:49.966Z,27.83
2017-12-21T00:39:17.438Z,24.90
2017-12-21T00:41:44.926Z,24.50
2017-12-21T00:44:13.178Z,26.13
2017-12-21T00:46:40.652Z,24.07
2017-12-21T00:49:08.909Z,23.80
2017-12-21T00:51:37.902Z,26.10
2017-12-21T00:54:05.378Z,26.47
2017-12-21T00:56:33.634Z,25.60
2017-12-21T00:59:01.538Z,25.40
2017-12-21T01:01:29.082Z,24.03
2017-12-21T01:03:57.340Z,26.23
2017-12-21T01:06:24.828Z,27.37
2017-12-21T01:08:53.070Z,26.70
2017-12-21T01:11:21.329Z,25.90
2017-12-21T01:13:48.814Z,25.17
2017-12-21T01:16:17.800Z,27.37
2017-12-21T01:18:46.089Z,25.97
2017-12-21T01:21:13.567Z,24.03
2017-12-21T01:23:41.801Z,26.20
2017-12-21T01:26:09.295Z,25.30
2017-12-21T01:28:37.537Z,29.03
2017-12-21T01:31:05.017Z,25.97
2017-12-21T01:33:32.514Z,26.73
2017-12-21T01:35:59.988Z,22.53
2017-12-21T01:38:27.459Z,20.57
2017-12-21T01:40:54.951Z,20.93
2017-12-21T01:43:23.196Z,19.57
2017-12-21T01:45:50.682Z,17.83
2017-12-21T01:48:18.168Z,18.07
2017-12-21T01:50:45.702Z,16.17
2017-12-21T01:53:13.952Z,17.97
2017-12-21T01:55:41.442Z,16.77
2017-12-21T01:58:09.686Z,15.50
2017-12-21T02:00:37.166Z,16.30
2017-12-21T02:03:04.654Z,18.10
2017-12-21T02:05:32.134Z,16.27
2017-12-21T02:07:59.658Z,17.27
2017-12-21T02:10:27.916Z,18.67
2017-12-21T02:12:55.396Z,19.17
2017-12-21T02:15:23.634Z,17.80
2017-12-21T02:17:52.659Z,17.17
2017-12-21T02:20:20.927Z,18.10
2017-12-21T02:22:49.175Z,17.50
2017-12-21T02:25:16.683Z,18.93
2017-12-21T02:27:44.159Z,17.03
2017-12-21T02:30:11.638Z,18.40
2017-12-21T02:32:39.145Z,17.60
2017-12-21T02:35:07.387Z,18.60
2017-12-21T02:37:34.862Z,17.33
2017-12-21T02:40:02.351Z,17.60
2017-12-21T02:42:29.841Z,16.93
2017-12-21T02:44:57.319Z,17.73
2017-12-21T02:47:24.807Z,17.90
2017-12-21T02:49:52.282Z,17.50
2017-12-21T02:52:19.771Z,17.80
2017-12-21T02:54:47.258Z,17.47
2017-12-21T02:57:14.757Z,17.37
2017-12-21T02:59:42.226Z,19.80
2017-12-21T03:02:09.734Z,17.17
2017-12-21T03:04:37.212Z,19.43
2017-12-21T03:07:05.462Z,20.10
2017-12-21T03:09:33.042Z,21.50
2017-12-21T03:12:00.520Z,18.10
2017-12-21T03:14:28.764Z,18.30
2017-12-21T03:16:57.027Z,18.27
2017-12-21T03:19:24.500Z,18.73
2017-12-21T03:21:51.987Z,19.67
2017-12-21T03:24:20.247Z,20.20
2017-12-21T03:26:48.524Z,18.80
2017-12-21T03:29:16.087Z,18.33
2017-12-21T03:31:44.346Z,22.43
2017-12-21T03:34:11.831Z,19.33
2017-12-21T03:36:40.079Z,18.50
2017-12-21T03:39:09.075Z,20.53
2017-12-21T03:41:36.550Z,18.57
2017-12-21T03:44:04.795Z,19.40
2017-12-21T03:46:32.275Z,18.87
2017-12-21T03:48:59.747Z,20.13
2017-12-21T03:51:27.987Z,19.47
2017-12-21T03:53:55.491Z,21.43
2017-12-21T03:56:22.963Z,18.90
2017-12-21T03:58:50.451Z,22.53
2017-12-21T04:01:17.934Z,20.27
2017-12-21T04:03:46.962Z,22.07
2017-12-21T04:06:14.516Z,20.43
2017-12-21T04:08:42.774Z,22.00
2017-12-21T04:11:10.259Z,19.20
2017-12-21T04:13:37.733Z,22.00
2017-12-21T04:16:05.258Z,19.90
2017-12-21T04:18:33.502Z,20.63
2017-12-21T04:21:00.983Z,21.20
2017-12-21T04:23:28.554Z,22.70
2017-12-21T04:25:56.799Z,21.43
2017-12-21T04:28:24.283Z,22.40
2017-12-21T04:30:52.533Z,20.63
2017-12-21T04:33:20.219Z,22.83
2017-12-21T04:35:48.463Z,21.73
2017-12-21T04:38:15.949Z,21.60
2017-12-21T04:40:43.595Z,22.03
2017-12-21T04:43:11.065Z,22.20
2017-12-21T04:45:38.555Z,21.20
2017-12-21T04:48:06.123Z,21.47
2017-12-21T04:50:33.590Z,22.83
2017-12-21T04:53:01.151Z,23.80
2017-12-21T04:55:28.627Z,22.40
2017-12-21T04:57:56.122Z,21.70
2017-12-21T05:00:23.639Z,21.63
2017-12-21T05:02:51.113Z,22.60
2017-12-21T05:05:18.596Z,20.00
2017-12-21T05:07:46.094Z,20.50
2017-12-21T05:10:13.588Z,23.43
2017-12-21T05:12:41.066Z,21.10
2017-12-21T05:15:08.554Z,19.50
2017-12-21T05:17:36.036Z,22.57
2017-12-21T05:20:03.556Z,20.50
2017-12-21T05:22:31.813Z,19.77
2017-12-21T05:24:59.292Z,18.00
2017-12-21T05:27:27.536Z,19.83
2017-12-21T05:29:55.033Z,24.40
2017-12-21T05:32:23.296Z,20.03
2017-12-21T05:34:51.545Z,20.73
2017-12-21T05:37:19.135Z,21.07
2017-12-21T05:39:47.383Z,19.50
2017-12-21T05:42:14.859Z,20.53
2017-12-21T05:44:42.343Z,19.93
2017-12-21T05:47:10.587Z,20.97
2017-12-21T05:49:38.075Z,19.83
2017-12-21T05:52:06.327Z,20.30
2017-12-21T05:54:33.807Z,20.33
2017-12-21T05:57:02.316Z,20.63
2017-12-21T05:59:29.810Z,21.07
2017-12-21T06:01:57.282Z,20.70
2017-12-21T06:04:24.754Z,19.70
2017-12-21T06:06:53.012Z,19.17
2017-12-21T06:09:20.482Z,20.93
2017-12-21T06:11:48.738Z,20.83
2017-12-21T06:14:16.226Z,20.90
2017-12-21T06:16:44.473Z,19.87
2017-12-21T06:19:11.950Z,19.40
2017-12-21T06:21:40.232Z,19.97
2017-12-21T06:24:08.473Z,20.20
2017-12-21T06:26:35.952Z,21.37
2017-12-21T06:29:03.441Z,20.47
2017-12-21T06:31:30.929Z,19.87
2017-12-21T06:33:58.415Z,21.50
2017-12-21T06:36:25.903Z,20.00
2017-12-21T06:38:54.139Z,18.53
2017-12-21T06:41:21.615Z,19.50
2017-12-21T06:43:49.098Z,19.23
2017-12-21T06:46:17.339Z,18.40
2017-12-21T06:48:44.810Z,20.03
2017-12-21T06:51:12.294Z,19.73
2017-12-21T06:53:40.536Z,20.77
2017-12-21T06:56:08.018Z,21.23
2017-12-21T06:58:36.292Z,21.00
2017-12-21T07:01:04.534Z,22.70
2017-12-21T07:03:32.012Z,20.67
2017-12-21T07:05:59.502Z,22.30
2017-12-21T07:08:26.976Z,23.53
2017-12-21T07:10:54.450Z,22.37
2017-12-21T07:13:21.942Z,26.97
2017-12-21T07:15:49.424Z,30.87
2017-12-21T07:18:17.664Z,31.60
2017-12-21T07:20:45.146Z,22.73
2017-12-21T07:23:13.396Z,23.17
2017-12-21T07:25:40.880Z,23.10
2017-12-21T07:28:09.134Z,22.07
2017-12-21T07:30:36.722Z,22.00
2017-12-21T07:33:04.970Z,23.87
2017-12-21T07:35:32.463Z,22.90
2017-12-21T07:38:00.709Z,21.20
2017-12-21T07:40:28.187Z,21.67
2017-12-21T07:42:56.447Z,20.70
2017-12-21T07:45:23.931Z,19.03
2017-12-21T07:47:52.170Z,19.80
2017-12-21T07:50:19.659Z,21.80
2017-12-21T07:52:47.911Z,19.67
2017-12-21T07:55:16.150Z,21.40
2017-12-21T07:57:43.638Z,21.17
2017-12-21T08:00:11.115Z,22.17
2017-12-21T08:02:38.586Z,24.30
2017-12-21T08:05:06.854Z,22.57
2017-12-21T08:07:35.104Z,20.90
2017-12-21T08:10:02.591Z,20.30
2017-12-21T08:12:30.846Z,22.40
2017-12-21T08:14:58.346Z,20.97
2017-12-21T08:17:26.135Z,20.63
2017-12-21T08:19:53.626Z,20.60
2017-12-21T08:22:21.104Z,20.87
2017-12-21T08:24:49.906Z,21.30
2017-12-21T08:27:18.171Z,17.37
2017-12-21T08:29:45.645Z,19.33
2017-12-21T08:32:13.888Z,20.60
2017-12-21T08:34:41.388Z,17.77
2017-12-21T08:37:08.867Z,21.40
2017-12-21T08:39:36.467Z,20.33
2017-12-21T08:42:04.755Z,20.10
2017-12-21T08:44:32.237Z,19.00
2017-12-21T08:47:00.502Z,18.90
2017-12-21T08:49:28.767Z,21.20
2017-12-21T08:51:56.281Z,21.87
2017-12-21T08:54:23.755Z,20.87
2017-12-21T08:56:51.260Z,20.80
2017-12-21T08:59:19.503Z,20.43
2017-12-21T09:01:46.984Z,23.03
2017-12-21T09:04:15.235Z,21.17
2017-12-21T09:06:42.720Z,21.03
2017-12-21T09:09:10.958Z,22.03
2017-12-21T09:11:38.653Z,21.70
2017-12-21T09:14:06.898Z,23.40
2017-12-21T09:16:34.380Z,22.50
2017-12-21T09:19:01.861Z,21.23
2017-12-21T09:21:30.108Z,20.60
2017-12-21T09:23:57.590Z,19.90
2017-12-21T09:26:25.852Z,19.93
2017-12-21T09:28:53.328Z,20.80
2017-12-21T09:31:21.571Z,20.40
2017-12-21T09:33:49.064Z,20.47
2017-12-21T09:36:17.307Z,20.20
2017-12-21T09:38:44.781Z,21.00
2017-12-21T09:41:13.033Z,22.37
2017-12-21T09:43:40.507Z,22.37
2017-12-21T09:46:07.987Z,23.37
2017-12-21T09:48:36.235Z,22.67
2017-12-21T09:51:03.707Z,21.63
2017-12-21T09:53:31.187Z,21.37
2017-12-21T09:55:59.441Z,25.23
2017-12-21T09:58:27.686Z,23.27
2017-12-21T10:00:55.160Z,22.53
2017-12-21T10:03:22.654Z,21.57
2017-12-21T10:05:50.150Z,21.83
2017-12-21T10:08:17.626Z,20.80
2017-12-21T10:10:45.110Z,20.90
2017-12-21T10:13:13.356Z,20.20
2017-12-21T10:15:40.850Z,17.87
2017-12-21T10:18:09.108Z,19.53
2017-12-21T10:20:36.600Z,24.90
2017-12-21T10:23:04.080Z,42.00
2017-12-21T10:25:31.566Z,24.60
2017-12-21T10:27:59.060Z,20.20
2017-12-21T10:30:27.307Z,25.20
2017-12-21T10:32:54.797Z,29.50
2017-12-21T10:35:23.040Z,21.60
2017-12-21T10:37:50.517Z,24.87
2017-12-21T10:40:18.083Z,22.30
2017-12-21T10:42:46.326Z,22.17
2017-12-21T10:45:13.807Z,23.50
2017-12-21T10:47:41.312Z,28.87
2017-12-21T10:50:08.864Z,26.10
2017-12-21T10:52:36.335Z,28.07
2017-12-21T10:55:03.823Z,24.60
2017-12-21T10:57:31.300Z,21.43
2017-12-21T10:59:58.773Z,21.67
2017-12-21T11:02:27.028Z,22.97
2017-12-21T11:04:54.602Z,23.93
2017-12-21T11:07:22.855Z,21.10
2017-12-21T11:09:50.346Z,21.10
2017-12-21T11:12:18.586Z,22.47
2017-12-21T11:14:46.073Z,20.30
2017-12-21T11:17:14.336Z,19.70
2017-12-21T11:19:41.814Z,21.10
2017-12-21T11:22:10.060Z,18.70
2017-12-21T11:24:37.652Z,19.60
2017-12-21T11:27:05.894Z,19.23
2017-12-21T11:29:34.144Z,18.27
2017-12-21T11:32:01.635Z,19.57
2017-12-21T11:34:29.216Z,21.20
2017-12-21T11:36:57.468Z,19.70
2017-12-21T11:39:24.955Z,20.33
2017-12-21T11:41:53.194Z,19.80
2017-12-21T11:44:20.669Z,20.97
2017-12-21T11:46:48.277Z,19.97
2017-12-21T11:49:15.759Z,18.57
2017-12-21T11:51:43.242Z,19.10
2017-12-21T11:54:10.735Z,19.10
2017-12-21T11:56:38.219Z,20.33
2017-12-21T11:59:06.323Z,22.50
2017-12-21T12:01:34.607Z,19.23
2017-12-21T12:04:02.703Z,20.40
2017-12-21T12:06:30.951Z,24.40
2017-12-21T12:08:58.459Z,23.40
2017-12-21T12:11:25.963Z,20.80
2017-12-21T12:13:53.442Z,19.00
2017-12-21T12:16:20.931Z,18.53
2017-12-21T12:18:48.458Z,20.33
2017-12-21T12:21:15.940Z,18.10
2017-12-21T12:23:44.232Z,16.57
2017-12-21T12:26:12.478Z,16.47
2017-12-21T12:28:40.742Z,17.23
2017-12-21T12:31:08.250Z,18.47
2017-12-21T12:33:35.744Z,19.67
2017-12-21T12:36:03.214Z,24.70
2017-12-21T12:38:30.704Z,27.87
2017-12-21T12:40:58.944Z,28.90
2017-12-21T12:43:26.422Z,28.33
2017-12-21T12:45:54.687Z,23.17
2017-12-21T12:48:22.268Z,19.07
2017-12-21T12:50:50.544Z,19.40
2017-12-21T12:53:18.806Z,20.37
2017-12-21T12:55:47.131Z,19.07
2017-12-21T12:58:14.655Z,20.43
2017-12-21T13:00:42.922Z,17.53
2017-12-21T13:03:11.167Z,18.70
2017-12-21T13:05:38.639Z,17.97
2017-12-21T13:08:06.891Z,15.50
2017-12-21T13:10:34.377Z,14.90
2017-12-21T13:13:01.853Z,16.03
2017-12-21T13:15:30.130Z,15.20
2017-12-21T13:17:58.438Z,15.77
2017-12-21T13:20:25.916Z,15.67
2017-12-21T13:22:53.405Z,15.37
2017-12-21T13:25:20.878Z,14.27
2017-12-21T13:27:49.124Z,14.33
2017-12-21T13:30:16.606Z,13.70
2017-12-21T13:32:44.880Z,14.83
2017-12-21T13:35:13.129Z,13.03
2017-12-21T13:37:40.623Z,15.40
2017-12-21T13:40:08.868Z,14.97
2017-12-21T13:42:36.344Z,13.87
2017-12-21T13:45:03.843Z,14.33
2017-12-21T13:47:31.363Z,14.50
2017-12-21T13:49:58.835Z,13.63
2017-12-21T13:52:27.329Z,14.13
2017-12-21T13:54:54.811Z,14.30
2017-12-21T13:57:22.295Z,14.43
2017-12-21T13:59:49.791Z,14.77
2017-12-21T14:02:18.042Z,13.87
2017-12-21T14:04:45.524Z,14.10
2017-12-21T14:07:13.781Z,13.03
2017-12-21T14:09:41.254Z,14.20
2017-12-21T14:12:09.779Z,13.70
2017-12-21T14:14:37.259Z,13.23
2017-12-21T14:17:04.735Z,12.50
2017-12-21T14:19:32.206Z,12.50
2017-12-21T14:21:59.686Z,13.67
2017-12-21T14:24:27.168Z,14.33
2017-12-21T14:26:54.640Z,13.23
2017-12-21T14:29:22.386Z,13.50
2017-12-21T14:31:49.858Z,13.90
2017-12-21T14:34:17.336Z,12.50
2017-12-21T14:36:44.827Z,12.73
2017-12-21T14:39:13.070Z,13.93
2017-12-21T14:41:40.548Z,14.40
2017-12-21T14:44:08.038Z,13.40
2017-12-21T14:46:35.576Z,12.93
2017-12-21T14:49:03.821Z,13.07
2017-12-21T14:51:31.405Z,14.07
2017-12-21T14:53:58.885Z,12.53
2017-12-21T14:56:27.132Z,15.13
2017-12-21T14:58:54.635Z,13.23
2017-12-21T15:01:22.131Z,13.13
2017-12-21T15:03:49.607Z,12.77
2017-12-21T15:06:17.119Z,13.47
2017-12-21T15:08:44.590Z,13.57
2017-12-21T15:11:12.071Z,13.70
2017-12-21T15:13:39.565Z,12.73
2017-12-21T15:16:07.807Z,12.10
2017-12-21T15:18:35.285Z,12.13
2017-12-21T15:21:02.766Z,16.47
2017-12-21T15:23:30.243Z,11.93
2017-12-21T15:25:57.722Z,14.20
2017-12-21T15:28:25.220Z,13.70
2017-12-21T15:30:53.462Z,17.83
2017-12-21T15:33:20.946Z,22.00
2017-12-21T15:35:48.760Z,21.57
2017-12-21T15:38:16.234Z,20.60
2017-12-21T15:40:43.706Z,18.00
2017-12-21T15:43:11.204Z,20.67
2017-12-21T15:45:40.273Z,18.90
2017-12-21T15:48:07.746Z,20.67
2017-12-21T15:50:36.004Z,38.13
2017-12-21T15:53:03.484Z,80.13
2017-12-21T15:55:31.727Z,30.03
2017-12-21T15:57:59.320Z,25.40
2017-12-21T16:00:27.563Z,27.40
2017-12-21T16:02:55.033Z,23.27
2017-12-21T16:05:22.523Z,24.40
2017-12-21T16:07:50.761Z,24.60
2017-12-21T16:10:18.344Z,29.90
2017-12-21T16:12:46.620Z,36.00
2017-12-21T16:15:14.903Z,42.37
2017-12-21T16:17:43.172Z,39.10
2017-12-21T16:20:10.750Z,37.27
2017-12-21T16:22:38.992Z,30.07
2017-12-21T16:25:06.483Z,35.27
2017-12-21T16:27:34.747Z,34.53
2017-12-21T16:30:02.999Z,27.47
2017-12-21T16:32:30.474Z,25.63
2017-12-21T16:34:57.972Z,24.77
2017-12-21T16:37:25.452Z,30.20
2017-12-21T16:39:52.933Z,31.27
2017-12-21T16:42:21.194Z,37.07
2017-12-21T16:44:48.668Z,39.43
2017-12-21T16:47:16.248Z,35.83
2017-12-21T16:49:44.502Z,32.87
2017-12-21T16:52:11.977Z,35.70
2017-12-21T16:54:39.462Z,46.30
2017-12-21T16:57:07.815Z,58.87
2017-12-21T16:59:35.291Z,55.83
2017-12-21T17:02:03.535Z,53.57
2017-12-21T17:04:31.055Z,50.07
2017-12-21T17:06:58.591Z,39.90
2017-12-21T17:09:26.831Z,33.20
2017-12-21T17:11:55.834Z,27.83
2017-12-21T17:14:23.311Z,28.27
2017-12-21T17:16:51.658Z,28.03
2017-12-21T17:19:20.072Z,18.30
2017-12-21T17:21:48.319Z,22.23
2017-12-21T17:24:15.920Z,17.80
2017-12-21T17:26:43.406Z,17.90
2017-12-21T17:29:10.886Z,15.80
2017-12-21T17:31:39.158Z,14.70
2017-12-21T17:34:06.643Z,16.20
2017-12-21T17:36:35.020Z,14.10
2017-12-21T17:39:02.516Z,15.67
2017-12-21T17:41:30.010Z,19.40
2017-12-21T17:43:57.492Z,15.33
2017-12-21T17:46:24.968Z,16.03
2017-12-21T17:48:53.258Z,14.10
2017-12-21T17:51:20.743Z,16.10
2017-12-21T17:53:48.227Z,14.70
2017-12-21T17:56:15.863Z,13.53
2017-12-21T17:58:43.467Z,14.90
2017-12-21T18:01:11.719Z,13.53
2017-12-21T18:03:39.207Z,15.73
2017-12-21T18:06:07.459Z,14.60
2017-12-21T18:08:34.965Z,14.53
2017-12-21T18:11:02.791Z,13.70
2017-12-21T18:13:30.277Z,13.87
2017-12-21T18:15:58.550Z,13.97
2017-12-21T18:18:26.111Z,14.57
2017-12-21T18:20:54.358Z,14.20
2017-12-21T18:23:21.840Z,12.50
2017-12-21T18:25:50.091Z,13.83
2017-12-21T18:28:17.562Z,12.50
2017-12-21T18:30:45.039Z,13.80
2017-12-21T18:33:13.296Z,13.47
2017-12-21T18:35:42.321Z,14.07
2017-12-21T18:38:09.870Z,13.80
2017-12-21T18:40:38.122Z,14.10
2017-12-21T18:43:05.604Z,13.67
2017-12-21T18:45:33.852Z,14.47
2017-12-21T18:48:02.146Z,15.73
2017-12-21T18:50:30.403Z,13.40
2017-12-21T18:52:57.879Z,21.20
2017-12-21T18:55:26.194Z,14.70
2017-12-21T18:57:53.721Z,14.70
2017-12-21T19:00:21.959Z,13.10
2017-12-21T19:02:49.471Z,14.73
2017-12-21T19:05:16.989Z,16.70
2017-12-21T19:07:44.471Z,15.23
2017-12-21T19:10:12.735Z,14.80
2017-12-21T19:12:40.307Z,14.50
2017-12-21T19:15:08.556Z,12.77
2017-12-21T19:17:36.079Z,14.07
2017-12-21T19:20:03.555Z,14.07
2017-12-21T19:22:31.063Z,17.53
2017-12-21T19:24:59.318Z,15.17
2017-12-21T19:27:26.795Z,15.97
2017-12-21T19:29:55.038Z,18.27
2017-12-21T19:32:22.630Z,16.83
2017-12-21T19:34:50.876Z,16.77
2017-12-21T19:37:18.351Z,13.73
2017-12-21T19:39:45.954Z,13.70
2017-12-21T19:42:13.428Z,11.70
2017-12-21T19:44:40.953Z,13.30
2017-12-21T19:47:08.504Z,12.63
2017-12-21T19:49:36.801Z,12.10
2017-12-21T19:52:04.292Z,10.73
2017-12-21T19:54:31.804Z,11.07
2017-12-21T19:56:59.306Z,18.67
2017-12-21T19:59:26.796Z,17.03
2017-12-21T20:01:55.073Z,27.70
2017-12-21T20:04:22.558Z,13.30
2017-12-21T20:06:50.875Z,11.13
2017-12-21T20:09:18.371Z,11.93
2017-12-21T20:11:46.615Z,11.90
2017-12-21T20:14:14.107Z,13.40
2017-12-21T20:16:42.379Z,11.90
2017-12-21T20:19:09.903Z,9.90
2017-12-21T20:21:37.409Z,9.90
2017-12-21T20:24:04.931Z,10.10
2017-12-21T20:26:32.419Z,10.27
2017-12-21T20:28:59.897Z,11.27
2017-12-21T20:31:27.398Z,12.80
2017-12-21T20:33:55.007Z,13.13
2017-12-21T20:36:22.491Z,13.67
2017-12-21T20:38:50.001Z,13.63
2017-12-21T20:41:17.546Z,15.40
2017-12-21T20:43:45.036Z,13.00
2017-12-21T20:46:13.322Z,14.90
2017-12-21T20:48:41.745Z,15.03
2017-12-21T20:51:09.240Z,15.70
2017-12-21T20:53:37.502Z,15.17
2017-12-21T20:56:05.048Z,12.97
2017-12-21T20:58:32.494Z,13.47
2017-12-21T21:00:59.996Z,12.47
2017-12-21T21:03:27.516Z,13.90
2017-12-21T21:05:55.056Z,13.37
2017-12-21T21:08:22.544Z,12.20
2017-12-21T21:10:50.038Z,11.40
2017-12-21T21:13:18.337Z,11.43
2017-12-21T21:15:45.835Z,11.53
2017-12-21T21:18:13.325Z,11.00
2017-12-21T21:20:41.631Z,10.60
2017-12-21T21:23:09.127Z,11.90
2017-12-21T21:25:36.613Z,11.70
2017-12-21T21:28:04.878Z,10.47
2017-12-21T21:30:32.456Z,11.30
2017-12-21T21:33:00.720Z,11.67
2017-12-21T21:35:28.213Z,12.47
2017-12-21T21:37:55.839Z,12.27
2017-12-21T21:40:23.318Z,11.70
2017-12-21T21:42:51.564Z,12.53
2017-12-21T21:45:19.050Z,11.47
2017-12-21T21:47:47.290Z,11.80
2017-12-21T21:50:14.769Z,11.87
2017-12-21T21:52:42.256Z,11.80
2017-12-21T21:55:09.742Z,12.03
2017-12-21T21:57:37.222Z,11.30
2017-12-21T22:00:04.714Z,12.27
2017-12-21T22:02:33.000Z,12.90
2017-12-21T22:05:01.238Z,13.70
2017-12-21T22:07:28.782Z,12.83
2017-12-21T22:09:57.189Z,13.20
2017-12-21T22:12:24.675Z,17.57
2017-12-21T22:14:53.783Z,14.23
2017-12-21T22:17:21.315Z,12.67
2017-12-21T22:19:49.577Z,14.50
2017-12-21T22:22:17.081Z,12.67
2017-12-21T22:24:44.595Z,13.30
2017-12-21T22:27:12.070Z,13.90
2017-12-21T22:29:40.345Z,14.60
2017-12-21T22:32:08.603Z,14.73
2017-12-21T22:34:36.215Z,14.20
2017-12-21T22:37:03.791Z,12.20
2017-12-21T22:39:31.273Z,14.83
2017-12-21T22:41:59.020Z,14.70
2017-12-21T22:44:26.503Z,14.00
2017-12-21T22:46:54.155Z,13.87
2017-12-21T22:49:21.646Z,13.63
2017-12-21T22:51:49.890Z,11.27
2017-12-21T22:54:17.370Z,13.23
2017-12-21T22:56:45.676Z,13.80
2017-12-21T22:59:13.182Z,12.87
2017-12-21T23:01:40.669Z,13.80
2017-12-21T23:04:08.912Z,12.60
2017-12-21T23:06:36.402Z,13.53
2017-12-21T23:09:04.646Z,13.27
2017-12-21T23:11:32.130Z,14.17
2017-12-21T23:13:59.625Z,12.30
2017-12-21T23:16:27.102Z,10.83
2017-12-21T23:18:54.676Z,11.47
2017-12-21T23:21:22.170Z,9.90
2017-12-21T23:23:50.415Z,8.63
2017-12-21T23:26:17.927Z,9.90
2017-12-21T23:28:45.431Z,10.00
2017-12-21T23:31:13.167Z,9.13
2017-12-21T23:33:40.649Z,9.17
2017-12-21T23:36:08.181Z,10.90
2017-12-21T23:38:35.716Z,10.27
2017-12-21T23:41:03.959Z,13.50
2017-12-21T23:43:32.311Z,9.53
2017-12-21T23:45:59.799Z,10.20
2017-12-21T23:48:27.731Z,9.53
2017-12-21T23:50:55.214Z,9.53
2017-12-21T23:53:22.682Z,9.70
2017-12-21T23:55:50.150Z,9.90
2017-12-21T23:58:18.038Z,8.40
